Time;durP1;ratioP1;P1;durP2;ratioP2;P2;SDS_P1;SDS_P2;PMS_P1;PMS_P2;Temp;Humidity;BMP_temperature;BMP_pressure;BME280_temperature;BME280_humidity;BME280_pressure;Samples;Min_cycle;Max_cycle;Signal;HPM_P1;HPM_P2
2023/09/04 00:01:47;;;;;;;2.93;2.70;;;;;;;16.57;82.13;101918.72;5051469;28;20209;-74
2023/09/04 00:04:14;;;;;;;2.73;2.50;;;;;;;16.46;83.10;101903.09;5051329;28;20212;-74
2023/09/04 00:06:41;;;;;;;2.80;2.60;;;;;;;16.41;83.86;101870.69;5051744;28;20300;-74
2023/09/04 00:09:07;;;;;;;2.30;2.20;;;;;;;16.43;83.58;101876.81;5051449;28;20202;-74
2023/09/04 00:11:35;;;;;;;2.67;2.47;;;;;;;16.41;83.54;101877.72;5051252;28;20579;-74
2023/09/04 00:14:02;;;;;;;2.23;2.13;;;;;;;16.32;83.76;101870.00;5051427;28;20619;-74
2023/09/04 00:16:28;;;;;;;2.60;2.50;;;;;;;16.20;84.16;101869.34;5051572;28;20698;-74
2023/09/04 00:18:55;;;;;;;2.60;2.40;;;;;;;16.17;84.14;101874.66;5051379;28;20212;-74
2023/09/04 00:21:21;;;;;;;3.00;2.80;;;;;;;16.16;84.27;101870.31;5051331;28;20237;-74
2023/09/04 00:23:48;;;;;;;3.00;2.67;;;;;;;16.20;84.77;101855.31;5051301;28;20234;-74
2023/09/04 00:26:14;;;;;;;2.93;2.73;;;;;;;16.07;86.05;101829.22;5051239;28;20585;-74
2023/09/04 00:28:42;;;;;;;2.63;2.43;;;;;;;16.08;85.87;101836.22;5051411;28;20216;-74
2023/09/04 00:31:09;;;;;;;3.03;2.50;;;;;;;15.99;85.85;101830.25;5051293;28;20202;-74
2023/09/04 00:33:35;;;;;;;3.27;2.50;;;;;;;16.03;85.12;101824.88;5050976;28;20232;-74
2023/09/04 00:36:02;;;;;;;2.80;2.60;;;;;;;16.10;85.12;101836.19;5051235;28;20214;-74
2023/09/04 00:38:29;;;;;;;2.50;2.30;;;;;;;16.10;85.46;101830.06;5050959;28;20212;-74
2023/09/04 00:40:55;;;;;;;2.93;2.60;;;;;;;16.08;85.70;101835.34;5051328;28;20241;-74
2023/09/04 00:43:22;;;;;;;2.57;2.37;;;;;;;16.13;85.39;101836.09;5050995;28;20229;-74
2023/09/04 00:45:50;;;;;;;3.47;2.80;;;;;;;16.15;85.69;101834.31;5051312;28;20205;-74
2023/09/04 00:48:16;;;;;;;2.80;2.53;;;;;;;16.21;86.17;101817.50;5051078;28;20227;-74
2023/09/04 00:50:44;;;;;;;2.97;2.77;;;;;;;16.24;86.54;101809.56;5051002;28;20205;-74
2023/09/04 00:53:11;;;;;;;3.00;2.70;;;;;;;16.20;86.09;101819.28;5051060;28;20234;-74
2023/09/04 00:55:38;;;;;;;2.80;2.60;;;;;;;16.21;85.58;101826.31;5053893;28;20234;-74
2023/09/04 00:58:05;;;;;;;2.57;2.37;;;;;;;16.21;85.05;101835.97;5054511;28;20206;-74
2023/09/04 01:00:32;;;;;;;3.00;2.80;;;;;;;16.18;85.19;101836.03;5054633;28;20226;-74
2023/09/04 01:03:02;;;;;;;2.60;2.40;;;;;;;16.07;85.38;101841.50;5054464;28;20232;-74
2023/09/04 01:05:31;;;;;;;2.60;2.47;;;;;;;16.00;85.48;101847.78;5054356;28;20205;-74
2023/09/04 01:07:58;;;;;;;2.73;2.53;;;;;;;15.97;85.39;101842.56;5054521;28;20211;-74
2023/09/04 01:10:27;;;;;;;2.50;2.30;;;;;;;15.99;85.07;101852.19;5054563;28;20201;-74
2023/09/04 01:13:04;;;;;;;2.67;2.47;;;;;;;15.90;85.11;101852.38;5054184;28;20594;-74
2023/09/04 01:15:32;;;;;;;3.30;2.97;;;;;;;15.94;84.74;101854.03;5054083;28;20214;-74
2023/09/04 01:18:00;;;;;;;4.23;2.37;;;;;;;15.85;85.45;101849.78;5054013;28;20203;-74
2023/09/04 01:20:29;;;;;;;2.87;2.67;;;;;;;15.73;86.05;101842.13;5053966;28;20226;-74
2023/09/04 01:22:56;;;;;;;2.53;2.33;;;;;;;15.78;86.29;101828.91;5054048;28;20646;-74
2023/09/04 01:25:31;;;;;;;2.90;2.70;;;;;;;15.74;86.24;101821.91;5054579;28;20201;-74
2023/09/04 01:28:08;;;;;;;3.00;2.80;;;;;;;15.68;86.61;101810.59;5053866;28;20215;-74
2023/09/04 01:30:43;;;;;;;2.77;2.57;;;;;;;15.67;86.79;101805.34;5054150;28;20197;-74
2023/09/04 01:33:14;;;;;;;3.20;2.90;;;;;;;15.57;86.98;101788.00;5053603;28;20228;-74
2023/09/04 01:35:43;;;;;;;2.83;2.63;;;;;;;15.58;86.89;101782.72;5053988;28;20205;-74
2023/09/04 01:38:10;;;;;;;2.47;2.27;;;;;;;15.59;86.97;101787.06;5053725;28;20209;-74
2023/09/04 01:40:37;;;;;;;4.10;2.73;;;;;;;15.65;87.73;101779.03;5053563;28;20225;-74
2023/09/04 01:43:03;;;;;;;2.60;2.40;;;;;;;15.72;87.72;101761.41;5053711;28;20229;-74
2023/09/04 01:45:30;;;;;;;2.67;2.47;;;;;;;15.70;86.88;101781.63;5053845;28;20201;-74
2023/09/04 01:47:56;;;;;;;2.60;2.37;;;;;;;15.68;86.96;101784.28;5053925;28;20212;-74
2023/09/04 01:50:23;;;;;;;2.80;2.70;;;;;;;15.75;87.18;101795.56;5053746;28;20206;-74
2023/09/04 01:52:51;;;;;;;2.53;2.20;;;;;;;15.77;86.43;101801.69;5053251;28;20236;-74
2023/09/04 01:55:17;;;;;;;2.43;2.23;;;;;;;15.64;85.72;101819.44;5053666;28;20214;-74
2023/09/04 01:57:44;;;;;;;2.67;2.40;;;;;;;15.64;86.43;101821.22;5053359;28;20215;-74
2023/09/04 02:00:12;;;;;;;2.43;2.23;;;;;;;15.71;85.68;101824.59;5053481;28;20225;-74
2023/09/04 02:02:38;;;;;;;2.50;2.27;;;;;;;15.68;86.23;101821.13;5053096;28;20612;-74
2023/09/04 02:05:05;;;;;;;3.00;2.80;;;;;;;15.70;86.63;101815.84;5052971;28;20217;-74
2023/09/04 02:07:32;;;;;;;3.53;2.40;;;;;;;15.71;86.06;101816.69;5053159;28;20667;-74
2023/09/04 02:10:00;;;;;;;2.50;2.40;;;;;;;15.67;85.20;101829.03;5053477;28;20202;-74
2023/09/04 02:12:26;;;;;;;2.50;2.30;;;;;;;15.64;85.30;101835.25;5053212;28;20241;-74
2023/09/04 02:14:53;;;;;;;4.37;2.50;;;;;;;15.64;85.42;101835.25;5053003;28;20624;-74
2023/09/04 02:17:19;;;;;;;2.53;2.33;;;;;;;15.62;84.89;101844.94;5053033;28;20589;-74
2023/09/04 02:19:46;;;;;;;2.40;2.30;;;;;;;15.60;84.87;101841.44;5052977;28;20206;-74
2023/09/04 02:22:12;;;;;;;3.07;2.87;;;;;;;15.57;85.21;101828.34;5052700;28;20228;-74
2023/09/04 02:24:41;;;;;;;2.70;2.50;;;;;;;15.53;84.86;101831.91;5053162;28;20205;-74
2023/09/04 02:27:08;;;;;;;3.50;2.73;;;;;;;15.48;84.41;101844.31;5052975;28;20205;-74
2023/09/04 02:29:35;;;;;;;2.70;2.50;;;;;;;15.46;84.37;101831.16;5052806;28;20217;-74
2023/09/04 02:32:01;;;;;;;3.03;2.83;;;;;;;15.39;84.61;101832.16;5052857;28;20217;-74
2023/09/04 02:34:28;;;;;;;3.43;2.60;;;;;;;15.41;85.04;101824.22;5052641;28;20568;-74
2023/09/04 02:36:55;;;;;;;2.93;2.80;;;;;;;15.48;85.22;101823.25;5052937;28;20278;-74
2023/09/04 02:39:21;;;;;;;3.03;2.73;;;;;;;15.46;85.94;101811.84;5052788;28;20209;-74
2023/09/04 02:41:47;;;;;;;3.90;3.60;;;;;;;15.49;85.78;101807.41;5052530;28;20232;-74
2023/09/04 02:44:15;;;;;;;3.60;3.37;;;;;;;15.49;85.23;101812.66;5052526;28;20215;-74
2023/09/04 02:46:42;;;;;;;3.63;3.33;;;;;;;15.47;84.73;101816.22;5052565;28;20213;-74
2023/09/04 02:49:11;;;;;;;3.27;3.00;;;;;;;15.47;84.46;101821.50;5052401;28;20205;-74
2023/09/04 02:51:38;;;;;;;3.80;3.60;;;;;;;15.41;84.33;101837.38;5052551;28;20202;-74
2023/09/04 02:54:05;;;;;;;3.70;3.50;;;;;;;15.34;84.71;101833.09;5052335;28;20240;-74
2023/09/04 02:56:31;;;;;;;3.63;3.33;;;;;;;15.35;84.54;101843.63;5052549;28;20205;-74
2023/09/04 02:58:58;;;;;;;3.57;3.37;;;;;;;15.33;84.96;101827.00;5052320;28;20686;-74
2023/09/04 03:01:25;;;;;;;4.47;4.17;;;;;;;15.29;84.43;101827.94;5052308;28;20236;-74
2023/09/04 03:03:52;;;;;;;3.90;3.60;;;;;;;15.25;84.07;101837.63;5052396;28;20225;-74
2023/09/04 03:06:18;;;;;;;3.87;3.67;;;;;;;15.23;83.85;101843.81;5052136;28;20209;-74
2023/09/04 03:08:45;;;;;;;4.10;3.90;;;;;;;15.23;84.05;101849.09;5052401;28;20220;-74
2023/09/04 03:11:13;;;;;;;4.40;3.97;;;;;;;15.15;83.94;101841.31;5052311;28;20671;-74
2023/09/04 03:13:40;;;;;;;4.33;3.93;;;;;;;15.10;83.97;101843.13;5051887;28;20761;-74
2023/09/04 03:16:07;;;;;;;4.07;3.87;;;;;;;15.03;84.70;101838.88;5051961;28;20210;-74
2023/09/04 03:18:35;;;;;;;3.90;3.70;;;;;;;15.06;84.88;101823.91;5051590;28;20209;-73
2023/09/04 03:21:02;;;;;;;4.50;4.10;;;;;;;15.02;84.84;101827.47;5052255;28;20221;-74
2023/09/04 03:23:29;;;;;;;4.23;3.93;;;;;;;15.04;84.63;101832.69;5052057;28;20244;-74
2023/09/04 03:25:56;;;;;;;4.60;4.30;;;;;;;15.06;84.86;101830.91;5052002;28;20212;-74
2023/09/04 03:28:23;;;;;;;4.53;4.23;;;;;;;15.09;84.50;101837.00;5052321;28;20209;-74
2023/09/04 03:30:49;;;;;;;4.07;3.77;;;;;;;15.14;84.47;101838.69;5051746;28;20680;-74
2023/09/04 03:33:16;;;;;;;4.00;3.77;;;;;;;15.13;84.36;101844.84;5051575;28;20670;-74
2023/09/04 03:35:44;;;;;;;4.07;3.80;;;;;;;15.16;84.18;101847.44;5052177;28;20208;-74
2023/09/04 03:38:10;;;;;;;3.53;3.33;;;;;;;15.12;83.95;101849.22;5051943;28;20206;-74
2023/09/04 03:40:37;;;;;;;4.33;4.03;;;;;;;15.14;84.06;101842.19;5051618;28;20707;-74
2023/09/04 03:43:04;;;;;;;3.90;3.60;;;;;;;15.13;84.42;101840.47;5051484;28;20232;-74
2023/09/04 03:45:32;;;;;;;4.00;3.70;;;;;;;14.98;85.27;101831.03;5051598;28;20206;-74
2023/09/04 03:47:59;;;;;;;4.07;3.77;;;;;;;14.98;85.13;101823.13;5051882;28;20209;-74
2023/09/04 03:50:26;;;;;;;4.17;3.77;;;;;;;14.85;85.47;101818.97;5051807;28;20209;-74
2023/09/04 03:52:54;;;;;;;4.90;4.50;;;;;;;14.28;87.87;101790.78;5051328;28;20734;-74
2023/09/04 03:55:21;;;;;;;4.97;4.57;;;;;;;13.81;91.51;101709.09;5051923;28;20209;-74
2023/09/04 03:57:51;;;;;;;6.00;4.33;;;;;;;14.03;92.02;101672.97;5051259;28;20204;-74
2023/09/04 04:00:18;;;;;;;4.83;4.43;;;;;;;14.09;91.05;101680.75;5051531;28;20296;-75
2023/09/04 04:02:46;;;;;;;8.73;4.80;;;;;;;13.42;93.95;101657.94;5051455;28;20290;-75
2023/09/04 04:05:13;;;;;;;4.80;4.50;;;;;;;13.33;95.98;101593.34;5051720;28;20209;-75
2023/09/04 04:07:41;;;;;;;5.90;5.40;;;;;;;13.24;96.56;101572.44;5051657;28;20207;-74
2023/09/04 04:10:10;;;;;;;5.93;5.53;;;;;;;12.85;98.91;101556.28;5051335;28;20209;-75
2023/09/04 04:12:37;;;;;;;6.10;5.60;;;;;;;12.65;100.00;101504.97;5051058;28;20228;-74
2023/09/04 04:15:06;;;;;;;6.03;5.63;;;;;;;12.88;100.00;101491.63;5051484;28;20217;-75
2023/09/04 04:17:33;;;;;;;4.90;4.60;;;;;;;13.20;100.00;101500.84;5051737;28;20205;-74
2023/09/04 04:19:59;;;;;;;4.97;4.67;;;;;;;13.40;97.59;101529.47;5051388;28;20216;-75
2023/09/04 04:22:26;;;;;;;4.53;4.13;;;;;;;13.57;95.01;101576.44;5050984;28;20236;-75
2023/09/04 04:24:52;;;;;;;4.40;4.00;;;;;;;13.64;93.84;101611.34;5050997;28;20206;-75
2023/09/04 04:27:20;;;;;;;4.27;3.93;;;;;;;13.78;92.72;101640.03;5051359;28;20213;-75
2023/09/04 04:29:49;;;;;;;4.00;3.80;;;;;;;13.87;91.62;101661.78;5054015;28;20581;-75
2023/09/04 04:32:16;;;;;;;3.80;3.50;;;;;;;13.96;92.05;101681.78;5054990;28;20248;-75
2023/09/04 04:34:43;;;;;;;3.30;3.10;;;;;;;13.98;90.84;101695.75;5054922;28;20671;-75
2023/09/04 04:37:13;;;;;;;3.37;3.17;;;;;;;13.98;90.24;101722.00;5054894;28;20208;-75
2023/09/04 04:39:39;;;;;;;3.60;3.37;;;;;;;14.03;89.89;101740.31;5054645;28;20415;-74
2023/09/04 04:42:06;;;;;;;2.97;2.37;;;;;;;14.04;90.58;101740.31;5054531;28;20236;-75
2023/09/04 04:44:34;;;;;;;4.03;3.60;;;;;;;14.13;90.67;101733.19;5054685;28;20663;-75
2023/09/04 04:47:00;;;;;;;3.40;3.10;;;;;;;14.19;90.27;101728.75;5054726;28;20259;-75
2023/09/04 04:49:27;;;;;;;3.10;2.90;;;;;;;14.28;89.93;101740.91;5053274;28;20593;-74
2023/09/04 04:51:54;;;;;;;3.20;2.90;;;;;;;14.36;89.35;101751.28;5054427;28;20201;-75
2023/09/04 04:54:20;;;;;;;3.23;3.00;;;;;;;14.40;89.18;101760.88;5054300;28;20218;-75
2023/09/04 04:56:48;;;;;;;2.90;2.73;;;;;;;14.39;88.89;101777.50;5054413;28;20678;-75
2023/09/04 04:59:15;;;;;;;3.50;3.20;;;;;;;14.42;88.52;101790.63;5054445;28;20714;-75
2023/09/04 05:01:44;;;;;;;3.30;3.10;;;;;;;14.31;87.52;101796.03;5054234;28;20229;-75
2023/09/04 05:04:11;;;;;;;3.37;3.00;;;;;;;14.28;87.74;101806.56;5054372;28;20214;-75
2023/09/04 05:06:37;;;;;;;2.90;2.70;;;;;;;14.25;88.31;101799.59;5054287;28;20688;-74
2023/09/04 05:09:05;;;;;;;3.20;3.00;;;;;;;14.29;88.91;101782.00;5054142;28;20213;-74
2023/09/04 05:11:32;;;;;;;3.50;3.10;;;;;;;14.26;89.35;101775.03;5054298;28;20211;-74
2023/09/04 05:13:59;;;;;;;3.10;2.90;;;;;;;14.17;90.52;101758.53;5054195;28;20237;-74
2023/09/04 05:16:26;;;;;;;3.13;2.93;;;;;;;14.21;90.68;101733.97;5054558;28;20216;-74
2023/09/04 05:18:54;;;;;;;3.40;3.20;;;;;;;14.17;91.22;101727.03;5054077;28;20215;-75
2023/09/04 05:21:21;;;;;;;3.63;3.33;;;;;;;14.14;91.24;101720.06;5053844;28;20243;-75
2023/09/04 05:23:48;;;;;;;3.13;2.83;;;;;;;14.20;90.64;101711.25;5054114;28;20502;-74
2023/09/04 05:26:15;;;;;;;4.53;3.03;;;;;;;14.25;90.71;101725.16;5054065;28;20208;-74
2023/09/04 05:28:41;;;;;;;3.63;3.33;;;;;;;14.20;91.74;101721.75;5053819;28;20215;-74
2023/09/04 05:31:08;;;;;;;4.40;4.10;;;;;;;14.04;93.37;101694.81;5053905;28;20213;-75
2023/09/04 05:33:34;;;;;;;5.27;4.97;;;;;;;14.00;94.15;101680.00;5053619;28;20241;-74
2023/09/04 05:36:02;;;;;;;4.90;4.60;;;;;;;14.21;92.83;101687.59;5054313;28;20212;-75
2023/09/04 05:38:29;;;;;;;5.93;5.53;;;;;;;14.28;92.00;101697.09;5053471;28;20671;-75
2023/09/04 05:40:57;;;;;;;5.57;5.07;;;;;;;14.38;91.49;101713.59;5052958;28;20217;-75
2023/09/04 05:43:24;;;;;;;5.17;4.77;;;;;;;14.38;91.89;101721.47;5053468;28;20773;-75
2023/09/04 05:45:51;;;;;;;5.37;5.03;;;;;;;14.48;91.26;101724.84;5053629;28;20220;-75
2023/09/04 05:48:17;;;;;;;5.03;4.60;;;;;;;14.47;90.96;101734.50;5053502;28;20224;-75
2023/09/04 05:50:44;;;;;;;4.87;4.47;;;;;;;14.57;90.78;101745.78;5054007;28;20693;-74
2023/09/04 05:53:12;;;;;;;5.20;4.77;;;;;;;14.63;90.66;101748.31;5053474;28;20237;-74
2023/09/04 05:55:39;;;;;;;5.17;4.87;;;;;;;14.64;90.83;101742.16;5053915;28;20212;-75
2023/09/04 05:58:06;;;;;;;4.13;3.83;;;;;;;14.68;91.37;101751.72;5053442;28;20205;-75
2023/09/04 06:00:32;;;;;;;5.27;4.80;;;;;;;14.73;91.17;101738.53;5053189;28;20224;-75
2023/09/04 06:02:59;;;;;;;5.00;4.70;;;;;;;14.76;91.16;101737.59;5053477;28;20722;-75
2023/09/04 06:05:26;;;;;;;5.80;5.40;;;;;;;14.78;91.25;101734.06;5053655;28;20220;-75
2023/09/04 06:07:53;;;;;;;4.50;4.20;;;;;;;14.85;91.15;101737.47;5053448;28;20212;-75
2023/09/04 06:10:21;;;;;;;4.83;4.53;;;;;;;14.93;91.27;101732.09;5053718;28;20212;-75
2023/09/04 06:12:47;;;;;;;5.53;5.10;;;;;;;14.92;91.82;101733.84;5053345;28;20236;-75
2023/09/04 06:15:14;;;;;;;5.70;5.20;;;;;;;14.68;93.42;101708.81;5053032;28;20213;-75
2023/09/04 06:17:40;;;;;;;5.77;5.37;;;;;;;14.69;94.29;101685.16;5053079;28;20213;-75
2023/09/04 06:20:08;;;;;;;5.30;4.90;;;;;;;14.83;94.26;101678.81;5052921;28;20698;-74
2023/09/04 06:22:34;;;;;;;5.73;5.27;;;;;;;14.75;95.22;101657.03;5052246;28;20226;-75
2023/09/04 06:25:01;;;;;;;6.60;6.03;;;;;;;14.61;95.80;101655.50;5053314;28;20202;-75
2023/09/04 06:27:29;;;;;;;7.07;6.57;;;;;;;14.80;96.16;101636.78;5052646;28;20694;-75
2023/09/04 06:29:55;;;;;;;7.03;6.43;;;;;;;14.82;95.49;101650.75;5052853;28;20217;-75
2023/09/04 06:32:22;;;;;;;6.37;5.97;;;;;;;14.71;95.98;101645.69;5052571;28;20241;-75
2023/09/04 06:34:48;;;;;;;7.70;7.20;;;;;;;14.49;98.38;101613.63;5052302;28;20585;-75
2023/09/04 06:37:15;;;;;;;7.80;6.33;;;;;;;14.55;98.73;101600.38;5052691;28;20213;-75
2023/09/04 06:39:41;;;;;;;7.00;6.50;;;;;;;14.67;99.50;101581.81;5052578;28;20675;-75
2023/09/04 06:42:08;;;;;;;8.10;7.40;;;;;;;14.67;99.71;101579.19;5052297;28;20232;-75
2023/09/04 06:44:36;;;;;;;6.23;5.83;;;;;;;14.75;99.38;101580.81;5052368;28;20224;-75
2023/09/04 06:47:03;;;;;;;6.53;5.73;;;;;;;14.73;99.44;101572.94;5052603;28;20212;-75
2023/09/04 06:49:30;;;;;;;5.70;5.30;;;;;;;14.82;99.74;101574.53;5052511;28;20209;-75
2023/09/04 06:51:57;;;;;;;6.17;5.70;;;;;;;14.63;100.00;101572.25;5052092;28;20670;-74
2023/09/04 06:54:24;;;;;;;5.87;5.27;;;;;;;14.64;100.00;101549.44;5052577;28;20232;-74
2023/09/04 06:56:50;;;;;;;5.90;5.60;;;;;;;14.67;100.00;101528.38;5052443;28;20200;-74
2023/09/04 06:59:18;;;;;;;6.37;5.97;;;;;;;14.81;100.00;101507.09;5052506;28;20201;-76
2023/09/04 07:01:46;;;;;;;6.57;6.17;;;;;;;14.97;100.00;101497.16;5052191;28;20627;-74
2023/09/04 07:04:13;;;;;;;8.70;8.10;;;;;;;15.12;100.00;101490.69;5051865;28;20210;-74
2023/09/04 07:06:39;;;;;;;8.20;7.70;;;;;;;15.22;100.00;101487.84;5051851;28;20209;-74
2023/09/04 07:09:06;;;;;;;8.03;7.43;;;;;;;15.42;100.00;101502.31;5052036;28;20213;-74
2023/09/04 07:11:32;;;;;;;7.57;6.93;;;;;;;15.54;100.00;101517.84;5051914;28;20204;-74
2023/09/04 07:13:59;;;;;;;7.53;6.33;;;;;;;15.47;100.00;101537.28;5051902;28;20233;-74
2023/09/04 07:16:25;;;;;;;5.73;5.33;;;;;;;15.47;100.00;101534.66;5052093;28;20564;-74
2023/09/04 07:18:54;;;;;;;4.77;4.50;;;;;;;15.43;100.00;101525.97;5051759;28;20205;-74
2023/09/04 07:21:21;;;;;;;7.63;4.90;;;;;;;15.45;100.00;101521.53;5051700;28;20216;-74
2023/09/04 07:23:47;;;;;;;5.17;4.53;;;;;;;15.42;100.00;101507.56;5051711;28;20229;-74
2023/09/04 07:26:14;;;;;;;4.10;3.80;;;;;;;15.39;100.00;101486.59;5051955;28;20209;-74
2023/09/04 07:28:40;;;;;;;5.00;3.47;;;;;;;15.41;100.00;101492.69;5052240;28;20267;-74
2023/09/04 07:31:16;;;;;;;4.23;3.93;;;;;;;15.44;100.00;101489.97;5051900;28;20209;-74
2023/09/04 07:33:43;;;;;;;4.17;3.90;;;;;;;15.46;100.00;101501.34;5051953;28;20225;-74
2023/09/04 07:36:11;;;;;;;5.03;4.73;;;;;;;15.50;100.00;101500.41;5050782;28;20209;-74
2023/09/04 07:38:37;;;;;;;3.80;3.60;;;;;;;15.70;100.00;101510.47;5052160;28;20647;-74
2023/09/04 07:41:04;;;;;;;3.90;3.60;;;;;;;15.74;100.00;101516.53;5052175;28;20212;-74
2023/09/04 07:43:32;;;;;;;4.10;3.80;;;;;;;15.84;100.00;101540.00;5051552;28;20233;-74
2023/09/04 07:46:00;;;;;;;4.43;3.90;;;;;;;15.91;100.00;101555.66;5051555;28;20205;-74
2023/09/04 07:48:27;;;;;;;3.90;3.60;;;;;;;15.99;100.00;101548.44;5051421;28;20235;-74
2023/09/04 07:50:53;;;;;;;3.57;3.37;;;;;;;16.05;100.00;101561.47;5051716;28;20208;-74
2023/09/04 07:53:22;;;;;;;3.73;3.43;;;;;;;16.19;100.00;101564.63;5051504;28;20223;-74
2023/09/04 07:55:49;;;;;;;3.30;3.10;;;;;;;16.19;100.00;101585.69;5051506;28;20677;-74
2023/09/04 07:58:15;;;;;;;3.00;2.80;;;;;;;16.24;100.00;101585.63;5051389;28;20214;-73
2023/09/04 08:00:45;;;;;;;2.87;2.77;;;;;;;16.43;100.00;101615.88;5051488;28;20205;-74
2023/09/04 08:03:12;;;;;;;3.87;3.53;;;;;;;16.56;100.00;101628.75;5052043;28;20233;-74
2023/09/04 08:05:38;;;;;;;3.97;3.47;;;;;;;16.66;100.00;101614.44;5055837;28;20674;-74
2023/09/04 08:08:09;;;;;;;3.23;3.03;;;;;;;16.72;100.00;101622.19;5055550;28;20209;-74
2023/09/04 08:10:39;;;;;;;3.57;3.37;;;;;;;16.80;100.00;101627.25;5055925;28;20672;-74
2023/09/04 08:13:07;;;;;;;3.37;3.17;;;;;;;16.92;100.00;101628.75;5055111;28;20791;-74
2023/09/04 08:15:33;;;;;;;3.77;3.33;;;;;;;16.98;100.00;101640.00;5055303;28;20346;-74
2023/09/04 08:18:00;;;;;;;4.37;3.67;;;;;;;17.12;100.00;101666.00;5055402;28;20210;-74
2023/09/04 08:20:27;;;;;;;3.43;3.20;;;;;;;17.27;97.88;101706.97;5055516;28;20221;-74
2023/09/04 08:22:53;;;;;;;3.93;3.20;;;;;;;17.38;95.73;101755.06;5053814;28;20233;-74
2023/09/04 08:25:20;;;;;;;3.97;3.00;;;;;;;17.44;97.11;101778.66;5053809;28;20201;-75
2023/09/04 08:27:47;;;;;;;3.57;3.23;;;;;;;17.58;98.21;101762.47;5054453;28;20221;-74
2023/09/04 08:30:14;;;;;;;2.90;2.70;;;;;;;17.56;97.00;101758.09;5053633;28;20211;-74
2023/09/04 08:32:41;;;;;;;3.13;2.90;;;;;;;17.66;96.17;101778.09;5054870;28;20226;-74
2023/09/04 08:35:08;;;;;;;3.73;3.43;;;;;;;17.62;97.41;101768.50;5055005;28;20205;-74
2023/09/04 08:37:34;;;;;;;4.70;3.20;;;;;;;17.72;97.98;101753.28;5054982;28;20213;-75
2023/09/04 08:40:01;;;;;;;4.23;3.93;;;;;;;17.80;90.01;101834.06;5055191;28;20241;-74
2023/09/04 08:42:29;;;;;;;3.10;2.90;;;;;;;17.95;91.55;101872.41;5054898;28;20285;-75
2023/09/04 08:44:58;;;;;;;2.80;2.60;;;;;;;18.08;87.49;101939.03;5055329;28;20210;-75
2023/09/04 08:47:25;;;;;;;2.87;2.60;;;;;;;18.12;89.61;101937.19;5054864;28;20287;-74
2023/09/04 08:49:53;;;;;;;2.50;2.10;;;;;;;18.15;88.65;101905.38;5054813;28;20673;-75
2023/09/04 08:52:20;;;;;;;2.23;2.13;;;;;;;18.23;80.73;102046.97;5054649;28;20220;-75
2023/09/04 08:54:48;;;;;;;3.30;2.40;;;;;;;18.43;79.06;102115.25;5054936;28;20218;-75
2023/09/04 08:57:15;;;;;;;2.30;2.10;;;;;;;18.50;85.67;102031.34;5054993;28;20294;-75
2023/09/04 08:59:42;;;;;;;2.57;2.07;;;;;;;18.57;82.87;102058.47;5054605;28;20209;-75
2023/09/04 09:02:16;;;;;;;1.93;1.83;;;;;;;18.60;75.49;102190.66;5054574;28;20243;-75
2023/09/04 09:04:43;;;;;;;1.97;1.77;;;;;;;18.73;74.10;102254.69;5054922;28;20253;-75
2023/09/04 09:07:12;;;;;;;1.93;1.83;;;;;;;18.80;76.69;102251.91;5054439;28;20212;-75
2023/09/04 09:09:42;;;;;;;2.17;2.00;;;;;;;18.94;76.81;102222.44;5054696;28;20218;-75
2023/09/04 09:12:09;;;;;;;2.17;1.97;;;;;;;18.98;81.64;102146.50;5054207;28;20705;-75
2023/09/04 09:14:35;;;;;;;2.00;1.90;;;;;;;19.02;77.34;102167.53;5053511;28;20223;-75
2023/09/04 09:17:03;;;;;;;2.63;2.30;;;;;;;19.07;76.84;102201.84;5053987;28;20210;-75
2023/09/04 09:19:33;;;;;;;2.13;2.03;;;;;;;19.11;76.09;102214.09;5054198;28;20210;-75
2023/09/04 09:22:10;;;;;;;2.10;2.00;;;;;;;19.19;72.08;102256.25;5054487;28;20210;-75
2023/09/04 09:24:48;;;;;;;2.07;1.90;;;;;;;19.26;73.19;102271.06;5054344;28;20206;-75
2023/09/04 09:27:15;;;;;;;6.17;2.20;;;;;;;19.30;74.93;102233.00;5054165;28;20207;-75
2023/09/04 09:29:42;;;;;;;2.17;1.97;;;;;;;19.41;75.72;102222.97;5053931;28;20699;-75
2023/09/04 09:32:09;;;;;;;2.37;2.27;;;;;;;19.47;73.74;102219.31;5053525;28;20237;-75
2023/09/04 09:34:39;;;;;;;2.23;1.87;;;;;;;19.54;72.50;102313.56;5054139;28;20207;-75
2023/09/04 09:37:07;;;;;;;2.13;1.93;;;;;;;19.64;72.99;102279.75;5054137;28;20211;-75
2023/09/04 09:39:34;;;;;;;2.10;1.90;;;;;;;19.59;77.85;102199.56;5053853;28;20211;-75
2023/09/04 09:42:01;;;;;;;2.47;2.30;;;;;;;19.63;77.99;102111.97;5053506;28;20209;-75
2023/09/04 09:44:30;;;;;;;2.43;2.23;;;;;;;19.71;72.03;102214.22;5053560;28;20459;-75
2023/09/04 09:46:56;;;;;;;2.50;1.80;;;;;;;19.79;70.83;102263.47;5053379;28;20262;-75
2023/09/04 09:49:23;;;;;;;2.30;2.10;;;;;;;19.76;70.61;102302.44;5053376;28;20694;-75
2023/09/04 09:51:54;;;;;;;2.00;1.90;;;;;;;19.69;68.79;102311.44;5052871;28;20581;-75
2023/09/04 09:54:37;;;;;;;1.77;1.67;;;;;;;19.78;73.10;102290.00;5053267;28;20239;-75
2023/09/04 09:57:07;;;;;;;2.77;1.87;;;;;;;19.82;68.88;102271.34;5053254;28;20242;-75
2023/09/04 09:59:35;;;;;;;3.10;2.03;;;;;;;19.81;66.85;102362.34;5053453;28;20205;-75
2023/09/04 10:02:03;;;;;;;2.10;1.90;;;;;;;19.99;71.19;102330.94;5053169;28;20207;-75
2023/09/04 10:04:31;;;;;;;2.43;2.13;;;;;;;20.06;70.26;102292.75;5053415;28;20214;-75
2023/09/04 10:07:01;;;;;;;2.33;2.13;;;;;;;20.15;69.96;102305.72;5053404;28;20342;-75
2023/09/04 10:09:29;;;;;;;3.43;1.77;;;;;;;20.27;69.54;102285.06;5053109;28;20208;-75
2023/09/04 10:12:13;;;;;;;2.20;2.00;;;;;;;20.33;72.29;102222.09;5053006;28;20216;-75
2023/09/04 10:14:42;;;;;;;2.57;2.20;;;;;;;20.39;67.40;102319.19;5053112;28;20220;-75
2023/09/04 10:17:15;;;;;;;3.87;2.10;;;;;;;20.39;68.49;102329.78;5053048;28;20264;-75
2023/09/04 10:19:44;;;;;;;2.10;1.97;;;;;;;20.31;67.84;102302.63;5053088;28;20219;-75
2023/09/04 10:22:17;;;;;;;2.37;1.80;;;;;;;20.43;66.49;102332.31;5052724;28;20224;-75
2023/09/04 10:24:50;;;;;;;2.20;1.47;;;;;;;20.54;65.73;102366.47;5053197;28;20209;-75
2023/09/04 10:27:18;;;;;;;1.97;1.87;;;;;;;20.61;66.50;102365.44;5050978;28;20209;-75
2023/09/04 10:30:06;;;;;;;1.90;1.67;;;;;;;20.61;68.13;102353.91;5052615;28;20210;-75
2023/09/04 10:32:33;;;;;;;2.23;2.03;;;;;;;20.78;64.82;102364.03;5051718;28;20263;-75
2023/09/04 10:35:01;;;;;;;3.80;2.00;;;;;;;20.80;65.47;102383.44;5052858;28;20218;-75
2023/09/04 10:37:31;;;;;;;2.03;1.93;;;;;;;20.83;62.49;102445.28;5052804;28;20233;-75
2023/09/04 10:39:59;;;;;;;1.97;1.87;;;;;;;20.93;65.42;102421.97;5052814;28;20674;-75
2023/09/04 10:42:27;;;;;;;3.13;1.87;;;;;;;20.97;60.35;102436.88;5052193;28;20236;-76
2023/09/04 10:44:56;;;;;;;2.00;1.80;;;;;;;21.05;64.86;102471.19;5052351;28;20212;-75
2023/09/04 10:47:23;;;;;;;2.07;1.90;;;;;;;21.06;61.50;102392.38;5052277;28;20303;-75
2023/09/04 10:49:51;;;;;;;1.80;1.70;;;;;;;21.19;60.48;102476.94;5052028;28;20219;-75
2023/09/04 10:52:18;;;;;;;1.50;1.40;;;;;;;21.32;62.55;102468.56;5051943;28;20229;-74
2023/09/04 10:54:46;;;;;;;1.93;1.83;;;;;;;21.37;60.44;102490.56;5050957;28;20216;-75
2023/09/04 10:57:15;;;;;;;2.23;1.97;;;;;;;21.35;64.41;102447.22;5042996;28;20202;-74
2023/09/04 11:00:00;;;;;;;1.80;1.70;;;;;;;21.46;65.99;102380.47;5042816;28;20227;-74
2023/09/04 11:02:28;;;;;;;1.77;1.50;;;;;;;21.53;64.36;102363.41;5040449;28;20230;-75
2023/09/04 11:04:56;;;;;;;1.70;1.60;;;;;;;21.66;61.90;102420.53;5049018;28;20209;-75
2023/09/04 11:07:27;;;;;;;1.83;1.73;;;;;;;21.88;63.39;102419.78;5052122;28;20206;-75
2023/09/04 11:10:03;;;;;;;2.70;1.80;;;;;;;21.78;59.46;102432.53;5035008;28;20672;-75
2023/09/04 11:12:33;;;;;;;2.33;1.70;;;;;;;22.06;59.22;102490.09;5032212;28;20229;-75
2023/09/04 11:14:59;;;;;;;2.33;2.13;;;;;;;22.07;66.64;102385.44;5032029;28;20225;-75
2023/09/04 11:17:28;;;;;;;2.07;1.97;;;;;;;22.28;62.84;102309.31;5032036;28;20220;-74
2023/09/04 11:19:55;;;;;;;2.20;1.70;;;;;;;22.51;61.56;102362.53;5032215;28;20218;-75
2023/09/04 11:22:24;;;;;;;2.83;1.63;;;;;;;22.68;59.59;102440.91;5031817;28;20227;-75
2023/09/04 11:24:53;;;;;;;2.53;1.83;;;;;;;22.85;57.71;102465.06;5032388;28;20229;-75
2023/09/04 11:27:21;;;;;;;1.90;1.60;;;;;;;22.98;56.43;102532.06;5032534;28;20576;-75